sensor_id;sensor_type;location;lat;lon;timestamp;P1;durP1;ratioP1;P2;durP2;ratioP2
7398;SDS011;3740;50.700;7.184;2022-07-05T00:02:01;3.35;;;1.80;;
7398;SDS011;3740;50.700;7.184;2022-07-05T00:04:47;2.47;;;2.08;;
7398;SDS011;3740;50.700;7.184;2022-07-05T00:07:35;2.40;;;2.00;;
7398;SDS011;3740;50.700;7.184;2022-07-05T00:10:21;2.88;;;2.20;;
7398;SDS011;3740;50.700;7.184;2022-07-05T00:13:08;3.30;;;2.53;;
7398;SDS011;3740;50.700;7.184;2022-07-05T00:15:54;2.03;;;1.67;;
7398;SDS011;3740;50.700;7.184;2022-07-05T00:18:40;3.17;;;2.17;;
7398;SDS011;3740;50.700;7.184;2022-07-05T00:21:25;4.15;;;2.35;;
7398;SDS011;3740;50.700;7.184;2022-07-05T00:24:11;3.58;;;2.33;;
7398;SDS011;3740;50.700;7.184;2022-07-05T00:26:57;3.70;;;2.60;;
7398;SDS011;3740;50.700;7.184;2022-07-05T00:29:43;3.42;;;2.42;;
7398;SDS011;3740;50.700;7.184;2022-07-05T00:32:29;3.13;;;2.83;;
7398;SDS011;3740;50.700;7.184;2022-07-05T00:35:15;3.97;;;2.80;;
7398;SDS011;3740;50.700;7.184;2022-07-05T00:38:01;3.17;;;2.88;;
7398;SDS011;3740;50.700;7.184;2022-07-05T00:40:47;2.90;;;2.70;;
7398;SDS011;3740;50.700;7.184;2022-07-05T00:43:33;3.10;;;2.80;;
7398;SDS011;3740;50.700;7.184;2022-07-05T00:46:19;2.75;;;2.50;;
7398;SDS011;3740;50.700;7.184;2022-07-05T00:49:05;2.70;;;2.50;;
7398;SDS011;3740;50.700;7.184;2022-07-05T00:51:51;2.85;;;2.33;;
7398;SDS011;3740;50.700;7.184;2022-07-05T00:54:38;4.78;;;2.40;;
7398;SDS011;3740;50.700;7.184;2022-07-05T00:57:24;2.33;;;2.10;;
7398;SDS011;3740;50.700;7.184;2022-07-05T01:00:10;2.47;;;2.17;;
7398;SDS011;3740;50.700;7.184;2022-07-05T01:02:56;2.70;;;2.17;;
7398;SDS011;3740;50.700;7.184;2022-07-05T01:05:42;2.45;;;2.25;;
7398;SDS011;3740;50.700;7.184;2022-07-05T01:08:28;3.10;;;2.20;;
7398;SDS011;3740;50.700;7.184;2022-07-05T01:11:15;5.73;;;2.67;;
7398;SDS011;3740;50.700;7.184;2022-07-05T01:14:01;2.50;;;2.30;;
7398;SDS011;3740;50.700;7.184;2022-07-05T01:16:50;2.33;;;2.13;;
7398;SDS011;3740;50.700;7.184;2022-07-05T01:19:38;2.43;;;2.30;;
7398;SDS011;3740;50.700;7.184;2022-07-05T01:22:24;4.22;;;2.40;;
7398;SDS011;3740;50.700;7.184;2022-07-05T01:25:11;4.35;;;2.58;;
7398;SDS011;3740;50.700;7.184;2022-07-05T01:27:58;2.70;;;2.40;;
7398;SDS011;3740;50.700;7.184;2022-07-05T01:30:45;4.27;;;2.80;;
7398;SDS011;3740;50.700;7.184;2022-07-05T01:33:32;4.00;;;2.40;;
7398;SDS011;3740;50.700;7.184;2022-07-05T01:36:18;3.17;;;2.53;;
7398;SDS011;3740;50.700;7.184;2022-07-05T01:39:04;2.40;;;2.20;;
7398;SDS011;3740;50.700;7.184;2022-07-05T01:41:52;3.10;;;2.40;;
7398;SDS011;3740;50.700;7.184;2022-07-05T01:44:38;2.93;;;2.60;;
7398;SDS011;3740;50.700;7.184;2022-07-05T01:47:24;3.05;;;2.50;;
7398;SDS011;3740;50.700;7.184;2022-07-05T01:50:11;3.22;;;2.63;;
7398;SDS011;3740;50.700;7.184;2022-07-05T01:52:58;3.53;;;2.63;;
7398;SDS011;3740;50.700;7.184;2022-07-05T01:55:48;3.17;;;2.40;;
7398;SDS011;3740;50.700;7.184;2022-07-05T01:58:34;2.73;;;2.50;;
7398;SDS011;3740;50.700;7.184;2022-07-05T02:01:33;2.63;;;2.40;;
7398;SDS011;3740;50.700;7.184;2022-07-05T02:04:21;3.77;;;2.67;;
7398;SDS011;3740;50.700;7.184;2022-07-05T02:07:07;2.87;;;2.43;;
7398;SDS011;3740;50.700;7.184;2022-07-05T02:09:54;3.07;;;2.50;;
7398;SDS011;3740;50.700;7.184;2022-07-05T02:12:40;2.50;;;2.30;;
7398;SDS011;3740;50.700;7.184;2022-07-05T02:15:26;3.20;;;2.63;;
7398;SDS011;3740;50.700;7.184;2022-07-05T02:18:12;3.25;;;2.70;;
7398;SDS011;3740;50.700;7.184;2022-07-05T02:20:57;3.37;;;2.40;;
7398;SDS011;3740;50.700;7.184;2022-07-05T02:23:43;3.47;;;2.45;;
7398;SDS011;3740;50.700;7.184;2022-07-05T02:26:29;3.97;;;2.80;;
7398;SDS011;3740;50.700;7.184;2022-07-05T02:29:15;2.93;;;2.53;;
7398;SDS011;3740;50.700;7.184;2022-07-05T02:32:01;4.27;;;2.43;;
7398;SDS011;3740;50.700;7.184;2022-07-05T02:34:47;2.60;;;2.40;;
7398;SDS011;3740;50.700;7.184;2022-07-05T02:37:33;2.83;;;2.50;;
7398;SDS011;3740;50.700;7.184;2022-07-05T02:40:19;3.10;;;2.70;;
7398;SDS011;3740;50.700;7.184;2022-07-05T02:43:05;2.70;;;2.50;;
7398;SDS011;3740;50.700;7.184;2022-07-05T02:45:50;3.03;;;2.70;;
7398;SDS011;3740;50.700;7.184;2022-07-05T02:48:37;3.00;;;2.80;;
7398;SDS011;3740;50.700;7.184;2022-07-05T02:51:23;4.87;;;2.80;;
7398;SDS011;3740;50.700;7.184;2022-07-05T02:54:09;3.03;;;2.73;;
7398;SDS011;3740;50.700;7.184;2022-07-05T02:56:54;3.57;;;2.60;;
7398;SDS011;3740;50.700;7.184;2022-07-05T02:59:40;3.60;;;2.70;;
7398;SDS011;3740;50.700;7.184;2022-07-05T03:02:26;2.97;;;2.70;;
7398;SDS011;3740;50.700;7.184;2022-07-05T03:05:12;3.70;;;2.60;;
7398;SDS011;3740;50.700;7.184;2022-07-05T03:07:58;3.13;;;2.73;;
7398;SDS011;3740;50.700;7.184;2022-07-05T03:10:44;3.73;;;2.87;;
7398;SDS011;3740;50.700;7.184;2022-07-05T03:13:30;3.77;;;2.97;;
7398;SDS011;3740;50.700;7.184;2022-07-05T03:16:16;4.70;;;3.20;;
7398;SDS011;3740;50.700;7.184;2022-07-05T03:19:02;3.13;;;2.83;;
7398;SDS011;3740;50.700;7.184;2022-07-05T03:21:48;3.20;;;2.73;;
7398;SDS011;3740;50.700;7.184;2022-07-05T03:24:34;4.03;;;3.00;;
7398;SDS011;3740;50.700;7.184;2022-07-05T03:27:19;3.40;;;3.10;;
7398;SDS011;3740;50.700;7.184;2022-07-05T03:30:06;4.37;;;3.20;;
7398;SDS011;3740;50.700;7.184;2022-07-05T03:32:52;2.97;;;2.70;;
7398;SDS011;3740;50.700;7.184;2022-07-05T03:35:38;3.03;;;2.77;;
7398;SDS011;3740;50.700;7.184;2022-07-05T03:38:24;3.10;;;2.80;;
7398;SDS011;3740;50.700;7.184;2022-07-05T03:41:10;4.00;;;3.00;;
7398;SDS011;3740;50.700;7.184;2022-07-05T03:43:55;3.40;;;3.10;;
7398;SDS011;3740;50.700;7.184;2022-07-05T03:46:41;3.33;;;2.83;;
7398;SDS011;3740;50.700;7.184;2022-07-05T03:49:27;3.73;;;2.90;;
7398;SDS011;3740;50.700;7.184;2022-07-05T03:52:13;3.27;;;2.97;;
7398;SDS011;3740;50.700;7.184;2022-07-05T03:54:59;4.53;;;3.57;;
7398;SDS011;3740;50.700;7.184;2022-07-05T03:57:45;4.67;;;3.13;;
7398;SDS011;3740;50.700;7.184;2022-07-05T04:00:31;3.80;;;3.10;;
7398;SDS011;3740;50.700;7.184;2022-07-05T04:03:17;5.60;;;3.37;;
7398;SDS011;3740;50.700;7.184;2022-07-05T04:06:03;3.40;;;3.10;;
7398;SDS011;3740;50.700;7.184;2022-07-05T04:08:49;4.37;;;3.33;;
7398;SDS011;3740;50.700;7.184;2022-07-05T04:11:35;3.50;;;3.10;;
7398;SDS011;3740;50.700;7.184;2022-07-05T04:14:21;3.37;;;3.07;;
7398;SDS011;3740;50.700;7.184;2022-07-05T04:17:07;4.13;;;3.43;;
7398;SDS011;3740;50.700;7.184;2022-07-05T04:19:53;3.77;;;3.47;;
7398;SDS011;3740;50.700;7.184;2022-07-05T04:22:39;3.77;;;3.10;;
7398;SDS011;3740;50.700;7.184;2022-07-05T04:25:24;4.20;;;3.77;;
7398;SDS011;3740;50.700;7.184;2022-07-05T04:28:10;4.47;;;3.63;;
7398;SDS011;3740;50.700;7.184;2022-07-05T04:30:56;4.93;;;3.37;;
7398;SDS011;3740;50.700;7.184;2022-07-05T04:33:43;3.90;;;3.60;;
7398;SDS011;3740;50.700;7.184;2022-07-05T04:36:28;4.17;;;3.73;;
7398;SDS011;3740;50.700;7.184;2022-07-05T04:39:14;4.70;;;4.13;;
7398;SDS011;3740;50.700;7.184;2022-07-05T04:42:00;5.40;;;3.63;;
7398;SDS011;3740;50.700;7.184;2022-07-05T04:44:49;6.50;;;3.80;;
7398;SDS011;3740;50.700;7.184;2022-07-05T04:47:35;4.00;;;3.60;;
7398;SDS011;3740;50.700;7.184;2022-07-05T04:50:21;4.33;;;3.93;;
7398;SDS011;3740;50.700;7.184;2022-07-05T04:53:07;5.00;;;3.87;;
7398;SDS011;3740;50.700;7.184;2022-07-05T04:55:53;5.03;;;4.30;;
7398;SDS011;3740;50.700;7.184;2022-07-05T04:58:39;7.47;;;4.13;;
7398;SDS011;3740;50.700;7.184;2022-07-05T05:01:25;4.47;;;4.07;;
7398;SDS011;3740;50.700;7.184;2022-07-05T05:04:11;5.50;;;4.43;;
7398;SDS011;3740;50.700;7.184;2022-07-05T05:06:57;5.63;;;4.23;;
7398;SDS011;3740;50.700;7.184;2022-07-05T05:09:43;5.53;;;4.68;;
7398;SDS011;3740;50.700;7.184;2022-07-05T05:12:29;4.82;;;4.40;;
7398;SDS011;3740;50.700;7.184;2022-07-05T05:15:15;5.15;;;4.57;;
7398;SDS011;3740;50.700;7.184;2022-07-05T05:18:01;5.25;;;4.85;;
7398;SDS011;3740;50.700;7.184;2022-07-05T05:20:47;5.32;;;4.85;;
7398;SDS011;3740;50.700;7.184;2022-07-05T05:23:33;5.93;;;5.38;;
7398;SDS011;3740;50.700;7.184;2022-07-05T05:26:19;6.07;;;5.47;;
7398;SDS011;3740;50.700;7.184;2022-07-05T05:29:05;7.68;;;5.80;;
7398;SDS011;3740;50.700;7.184;2022-07-05T05:31:51;6.03;;;5.40;;
7398;SDS011;3740;50.700;7.184;2022-07-05T05:34:37;7.40;;;5.97;;
7398;SDS011;3740;50.700;7.184;2022-07-05T05:37:22;6.53;;;5.90;;
7398;SDS011;3740;50.700;7.184;2022-07-05T05:40:08;6.53;;;5.63;;
7398;SDS011;3740;50.700;7.184;2022-07-05T05:42:55;6.23;;;5.63;;
7398;SDS011;3740;50.700;7.184;2022-07-05T05:45:41;6.93;;;5.63;;
7398;SDS011;3740;50.700;7.184;2022-07-05T05:48:27;5.83;;;5.33;;
7398;SDS011;3740;50.700;7.184;2022-07-05T05:51:13;6.43;;;5.50;;
7398;SDS011;3740;50.700;7.184;2022-07-05T05:53:59;7.67;;;5.70;;
7398;SDS011;3740;50.700;7.184;2022-07-05T05:56:45;5.93;;;5.43;;
7398;SDS011;3740;50.700;7.184;2022-07-05T05:59:31;5.55;;;5.05;;
7398;SDS011;3740;50.700;7.184;2022-07-05T06:02:16;5.95;;;5.35;;
7398;SDS011;3740;50.700;7.184;2022-07-05T06:05:02;6.60;;;5.65;;
7398;SDS011;3740;50.700;7.184;2022-07-05T06:07:53;5.93;;;5.35;;
7398;SDS011;3740;50.700;7.184;2022-07-05T06:10:40;6.73;;;5.43;;
7398;SDS011;3740;50.700;7.184;2022-07-05T06:13:26;8.50;;;5.07;;
7398;SDS011;3740;50.700;7.184;2022-07-05T06:16:13;6.65;;;4.80;;
7398;SDS011;3740;50.700;7.184;2022-07-05T06:18:59;6.10;;;5.50;;
7398;SDS011;3740;50.700;7.184;2022-07-05T06:21:45;5.57;;;5.07;;
7398;SDS011;3740;50.700;7.184;2022-07-05T06:24:31;6.25;;;5.22;;
7398;SDS011;3740;50.700;7.184;2022-07-05T06:27:17;6.05;;;5.35;;
7398;SDS011;3740;50.700;7.184;2022-07-05T06:30:03;7.20;;;6.15;;
7398;SDS011;3740;50.700;7.184;2022-07-05T06:32:49;8.00;;;5.88;;
7398;SDS011;3740;50.700;7.184;2022-07-05T06:35:35;8.70;;;7.15;;
7398;SDS011;3740;50.700;7.184;2022-07-05T06:38:22;8.65;;;7.68;;
7398;SDS011;3740;50.700;7.184;2022-07-05T06:41:07;7.90;;;7.10;;
7398;SDS011;3740;50.700;7.184;2022-07-05T06:43:53;7.20;;;6.50;;
7398;SDS011;3740;50.700;7.184;2022-07-05T06:46:39;6.57;;;5.55;;
7398;SDS011;3740;50.700;7.184;2022-07-05T06:49:25;7.72;;;6.15;;
7398;SDS011;3740;50.700;7.184;2022-07-05T06:52:11;9.38;;;6.63;;
7398;SDS011;3740;50.700;7.184;2022-07-05T06:54:57;6.30;;;5.70;;
7398;SDS011;3740;50.700;7.184;2022-07-05T06:57:44;7.28;;;5.90;;
7398;SDS011;3740;50.700;7.184;2022-07-05T07:00:30;9.52;;;5.85;;
7398;SDS011;3740;50.700;7.184;2022-07-05T07:03:17;7.65;;;5.75;;
7398;SDS011;3740;50.700;7.184;2022-07-05T07:06:03;6.78;;;6.05;;
7398;SDS011;3740;50.700;7.184;2022-07-05T07:08:49;9.52;;;7.93;;
7398;SDS011;3740;50.700;7.184;2022-07-05T07:11:53;8.43;;;6.55;;
7398;SDS011;3740;50.700;7.184;2022-07-05T07:14:39;7.53;;;6.43;;
7398;SDS011;3740;50.700;7.184;2022-07-05T07:17:25;7.30;;;6.60;;
7398;SDS011;3740;50.700;7.184;2022-07-05T07:20:11;6.32;;;5.72;;
7398;SDS011;3740;50.700;7.184;2022-07-05T07:22:57;8.05;;;6.20;;
7398;SDS011;3740;50.700;7.184;2022-07-05T07:25:43;9.18;;;7.03;;
7398;SDS011;3740;50.700;7.184;2022-07-05T07:28:29;7.13;;;6.22;;
7398;SDS011;3740;50.700;7.184;2022-07-05T07:31:15;8.23;;;6.97;;
7398;SDS011;3740;50.700;7.184;2022-07-05T07:34:01;7.72;;;6.55;;
7398;SDS011;3740;50.700;7.184;2022-07-05T07:36:47;6.57;;;5.93;;
7398;SDS011;3740;50.700;7.184;2022-07-05T07:39:34;7.63;;;6.60;;
7398;SDS011;3740;50.700;7.184;2022-07-05T07:42:20;7.18;;;5.47;;
7398;SDS011;3740;50.700;7.184;2022-07-05T07:45:06;6.97;;;6.38;;
7398;SDS011;3740;50.700;7.184;2022-07-05T07:47:52;7.80;;;5.50;;
7398;SDS011;3740;50.700;7.184;2022-07-05T07:50:38;7.80;;;6.90;;
7398;SDS011;3740;50.700;7.184;2022-07-05T07:53:24;7.70;;;7.05;;
7398;SDS011;3740;50.700;7.184;2022-07-05T07:56:10;7.00;;;6.30;;
7398;SDS011;3740;50.700;7.184;2022-07-05T07:58:55;8.57;;;7.00;;
7398;SDS011;3740;50.700;7.184;2022-07-05T08:01:41;5.82;;;5.28;;
7398;SDS011;3740;50.700;7.184;2022-07-05T08:04:27;5.93;;;5.05;;
7398;SDS011;3740;50.700;7.184;2022-07-05T08:07:13;7.00;;;6.00;;
7398;SDS011;3740;50.700;7.184;2022-07-05T08:09:59;8.73;;;6.80;;
7398;SDS011;3740;50.700;7.184;2022-07-05T08:12:49;6.03;;;5.40;;
7398;SDS011;3740;50.700;7.184;2022-07-05T08:15:35;7.85;;;5.65;;
7398;SDS011;3740;50.700;7.184;2022-07-05T08:18:21;7.28;;;5.70;;
7398;SDS011;3740;50.700;7.184;2022-07-05T08:21:25;6.00;;;5.40;;
7398;SDS011;3740;50.700;7.184;2022-07-05T08:24:17;8.07;;;5.40;;
7398;SDS011;3740;50.700;7.184;2022-07-05T08:27:03;6.90;;;6.20;;
7398;SDS011;3740;50.700;7.184;2022-07-05T08:29:49;7.55;;;6.00;;
7398;SDS011;3740;50.700;7.184;2022-07-05T08:32:35;6.82;;;5.00;;
7398;SDS011;3740;50.700;7.184;2022-07-05T08:35:22;6.10;;;4.30;;
7398;SDS011;3740;50.700;7.184;2022-07-05T08:38:08;4.78;;;4.25;;
7398;SDS011;3740;50.700;7.184;2022-07-05T08:40:54;5.32;;;4.82;;
7398;SDS011;3740;50.700;7.184;2022-07-05T08:43:41;5.78;;;4.63;;
7398;SDS011;3740;50.700;7.184;2022-07-05T08:46:29;4.85;;;4.25;;
7398;SDS011;3740;50.700;7.184;2022-07-05T08:49:20;6.32;;;4.18;;
7398;SDS011;3740;50.700;7.184;2022-07-05T08:52:11;5.93;;;4.53;;
7398;SDS011;3740;50.700;7.184;2022-07-05T08:55:00;5.65;;;5.03;;
7398;SDS011;3740;50.700;7.184;2022-07-05T08:57:47;7.35;;;5.03;;
7398;SDS011;3740;50.700;7.184;2022-07-05T09:00:36;6.00;;;4.75;;
7398;SDS011;3740;50.700;7.184;2022-07-05T09:03:22;5.00;;;4.50;;
7398;SDS011;3740;50.700;7.184;2022-07-05T09:06:13;5.72;;;4.18;;
7398;SDS011;3740;50.700;7.184;2022-07-05T09:09:01;5.97;;;4.70;;
7398;SDS011;3740;50.700;7.184;2022-07-05T09:11:48;3.90;;;3.50;;
7398;SDS011;3740;50.700;7.184;2022-07-05T09:14:34;5.28;;;4.18;;
7398;SDS011;3740;50.700;7.184;2022-07-05T09:17:20;4.22;;;3.80;;
7398;SDS011;3740;50.700;7.184;2022-07-05T09:22:54;7.25;;;4.28;;
7398;SDS011;3740;50.700;7.184;2022-07-05T09:25:41;8.45;;;5.63;;
7398;SDS011;3740;50.700;7.184;2022-07-05T09:28:27;7.50;;;4.85;;
7398;SDS011;3740;50.700;7.184;2022-07-05T09:31:25;4.78;;;4.40;;
7398;SDS011;3740;50.700;7.184;2022-07-05T09:34:16;6.32;;;4.10;;
7398;SDS011;3740;50.700;7.184;2022-07-05T09:37:03;4.93;;;4.47;;
7398;SDS011;3740;50.700;7.184;2022-07-05T09:39:49;6.05;;;4.60;;
7398;SDS011;3740;50.700;7.184;2022-07-05T09:42:36;10.63;;;4.63;;
7398;SDS011;3740;50.700;7.184;2022-07-05T09:45:22;4.78;;;3.80;;
7398;SDS011;3740;50.700;7.184;2022-07-05T09:48:09;5.28;;;3.88;;
7398;SDS011;3740;50.700;7.184;2022-07-05T09:53:55;6.00;;;3.80;;
7398;SDS011;3740;50.700;7.184;2022-07-05T09:56:44;4.60;;;3.40;;
7398;SDS011;3740;50.700;7.184;2022-07-05T09:59:31;4.82;;;3.30;;
7398;SDS011;3740;50.700;7.184;2022-07-05T10:02:24;5.32;;;3.35;;
7398;SDS011;3740;50.700;7.184;2022-07-05T10:05:24;4.90;;;3.85;;
7398;SDS011;3740;50.700;7.184;2022-07-05T10:08:13;3.22;;;2.83;;
7398;SDS011;3740;50.700;7.184;2022-07-05T10:11:00;6.80;;;3.40;;
7398;SDS011;3740;50.700;7.184;2022-07-05T10:13:47;4.28;;;3.17;;
7398;SDS011;3740;50.700;7.184;2022-07-05T10:16:34;4.03;;;3.13;;
7398;SDS011;3740;50.700;7.184;2022-07-05T10:19:20;4.55;;;3.50;;
7398;SDS011;3740;50.700;7.184;2022-07-05T10:22:06;3.83;;;3.42;;
7398;SDS011;3740;50.700;7.184;2022-07-05T10:24:52;3.40;;;2.85;;
7398;SDS011;3740;50.700;7.184;2022-07-05T10:27:40;6.97;;;3.00;;
7398;SDS011;3740;50.700;7.184;2022-07-05T10:30:27;5.53;;;2.67;;
7398;SDS011;3740;50.700;7.184;2022-07-05T10:33:17;2.50;;;1.92;;
7398;SDS011;3740;50.700;7.184;2022-07-05T10:36:06;4.70;;;2.70;;
7398;SDS011;3740;50.700;7.184;2022-07-05T10:38:55;9.40;;;2.83;;
7398;SDS011;3740;50.700;7.184;2022-07-05T10:41:42;4.45;;;2.58;;
7398;SDS011;3740;50.700;7.184;2022-07-05T10:44:32;3.58;;;2.00;;
7398;SDS011;3740;50.700;7.184;2022-07-05T10:47:19;4.82;;;2.28;;
7398;SDS011;3740;50.700;7.184;2022-07-05T10:50:05;2.38;;;1.90;;
7398;SDS011;3740;50.700;7.184;2022-07-05T10:53:01;4.28;;;2.33;;
7398;SDS011;3740;50.700;7.184;2022-07-05T10:55:54;5.45;;;2.75;;
7398;SDS011;3740;50.700;7.184;2022-07-05T10:58:45;3.97;;;2.40;;
7398;SDS011;3740;50.700;7.184;2022-07-05T11:01:33;2.40;;;2.20;;
7398;SDS011;3740;50.700;7.184;2022-07-05T11:04:23;2.90;;;2.35;;
7398;SDS011;3740;50.700;7.184;2022-07-05T11:07:12;2.53;;;1.95;;
7398;SDS011;3740;50.700;7.184;2022-07-05T11:09:59;3.83;;;1.70;;
7398;SDS011;3740;50.700;7.184;2022-07-05T11:12:45;1.90;;;1.80;;
7398;SDS011;3740;50.700;7.184;2022-07-05T11:15:31;1.70;;;1.55;;
7398;SDS011;3740;50.700;7.184;2022-07-05T11:18:22;3.85;;;2.17;;
7398;SDS011;3740;50.700;7.184;2022-07-05T11:21:21;3.08;;;1.80;;
7398;SDS011;3740;50.700;7.184;2022-07-05T11:24:26;2.83;;;1.90;;
7398;SDS011;3740;50.700;7.184;2022-07-05T11:27:15;3.25;;;2.00;;
7398;SDS011;3740;50.700;7.184;2022-07-05T11:30:01;2.50;;;1.65;;
7398;SDS011;3740;50.700;7.184;2022-07-05T11:32:47;3.78;;;1.70;;
7398;SDS011;3740;50.700;7.184;2022-07-05T11:35:33;3.40;;;2.03;;
7398;SDS011;3740;50.700;7.184;2022-07-05T11:38:23;2.03;;;1.90;;
7398;SDS011;3740;50.700;7.184;2022-07-05T11:41:10;1.90;;;1.80;;
7398;SDS011;3740;50.700;7.184;2022-07-05T11:43:58;3.58;;;2.20;;
7398;SDS011;3740;50.700;7.184;2022-07-05T11:46:44;2.00;;;1.60;;
7398;SDS011;3740;50.700;7.184;2022-07-05T11:49:30;3.22;;;1.90;;
7398;SDS011;3740;50.700;7.184;2022-07-05T11:52:16;3.78;;;1.90;;
7398;SDS011;3740;50.700;7.184;2022-07-05T11:55:06;2.20;;;1.40;;
7398;SDS011;3740;50.700;7.184;2022-07-05T11:57:55;2.72;;;2.20;;
7398;SDS011;3740;50.700;7.184;2022-07-05T12:00:41;3.60;;;2.15;;
7398;SDS011;3740;50.700;7.184;2022-07-05T12:03:28;2.85;;;1.92;;
7398;SDS011;3740;50.700;7.184;2022-07-05T12:06:14;3.35;;;1.98;;
7398;SDS011;3740;50.700;7.184;2022-07-05T12:09:03;3.17;;;1.90;;
7398;SDS011;3740;50.700;7.184;2022-07-05T12:11:51;1.77;;;1.67;;
7398;SDS011;3740;50.700;7.184;2022-07-05T12:14:59;2.45;;;1.90;;
7398;SDS011;3740;50.700;7.184;2022-07-05T12:17:46;3.95;;;2.50;;
7398;SDS011;3740;50.700;7.184;2022-07-05T12:20:35;2.10;;;1.80;;
7398;SDS011;3740;50.700;7.184;2022-07-05T12:23:26;1.83;;;1.70;;
7398;SDS011;3740;50.700;7.184;2022-07-05T12:26:13;4.22;;;2.45;;
7398;SDS011;3740;50.700;7.184;2022-07-05T12:28:59;6.38;;;2.83;;
7398;SDS011;3740;50.700;7.184;2022-07-05T12:31:58;12.45;;;3.80;;
7398;SDS011;3740;50.700;7.184;2022-07-05T12:34:49;3.45;;;2.30;;
7398;SDS011;3740;50.700;7.184;2022-07-05T12:37:35;2.40;;;2.20;;
7398;SDS011;3740;50.700;7.184;2022-07-05T12:40:21;1.65;;;1.55;;
7398;SDS011;3740;50.700;7.184;2022-07-05T12:43:09;2.53;;;2.30;;
7398;SDS011;3740;50.700;7.184;2022-07-05T12:48:52;3.28;;;2.17;;
7398;SDS011;3740;50.700;7.184;2022-07-05T12:51:40;1.73;;;1.60;;
7398;SDS011;3740;50.700;7.184;2022-07-05T12:54:27;2.42;;;1.70;;
7398;SDS011;3740;50.700;7.184;2022-07-05T12:57:31;4.88;;;2.45;;
7398;SDS011;3740;50.700;7.184;2022-07-05T13:00:36;2.20;;;2.00;;
7398;SDS011;3740;50.700;7.184;2022-07-05T13:03:22;2.72;;;2.00;;
7398;SDS011;3740;50.700;7.184;2022-07-05T13:06:08;2.58;;;1.92;;
7398;SDS011;3740;50.700;7.184;2022-07-05T13:08:57;3.83;;;1.75;;
7398;SDS011;3740;50.700;7.184;2022-07-05T13:11:43;1.83;;;1.73;;
7398;SDS011;3740;50.700;7.184;2022-07-05T13:14:29;3.08;;;1.67;;
7398;SDS011;3740;50.700;7.184;2022-07-05T13:17:16;2.53;;;1.65;;
7398;SDS011;3740;50.700;7.184;2022-07-05T13:20:03;1.85;;;1.75;;
7398;SDS011;3740;50.700;7.184;2022-07-05T13:22:49;3.30;;;1.70;;
7398;SDS011;3740;50.700;7.184;2022-07-05T13:25:35;2.28;;;1.88;;
7398;SDS011;3740;50.700;7.184;2022-07-05T13:28:35;2.35;;;2.10;;
7398;SDS011;3740;50.700;7.184;2022-07-05T13:31:21;2.47;;;2.25;;
7398;SDS011;3740;50.700;7.184;2022-07-05T13:34:07;1.42;;;1.33;;
7398;SDS011;3740;50.700;7.184;2022-07-05T13:36:53;2.70;;;1.70;;
7398;SDS011;3740;50.700;7.184;2022-07-05T13:39:39;2.22;;;1.58;;
7398;SDS011;3740;50.700;7.184;2022-07-05T13:42:25;1.65;;;1.52;;
7398;SDS011;3740;50.700;7.184;2022-07-05T13:45:11;3.47;;;1.77;;
7398;SDS011;3740;50.700;7.184;2022-07-05T13:47:59;1.52;;;1.42;;
7398;SDS011;3740;50.700;7.184;2022-07-05T13:50:45;2.88;;;1.77;;
7398;SDS011;3740;50.700;7.184;2022-07-05T13:53:30;2.33;;;1.88;;
7398;SDS011;3740;50.700;7.184;2022-07-05T13:56:16;2.67;;;1.70;;
7398;SDS011;3740;50.700;7.184;2022-07-05T13:59:03;2.17;;;1.70;;
7398;SDS011;3740;50.700;7.184;2022-07-05T14:01:49;3.05;;;1.80;;
7398;SDS011;3740;50.700;7.184;2022-07-05T14:04:34;2.15;;;1.67;;
7398;SDS011;3740;50.700;7.184;2022-07-05T14:07:20;3.58;;;2.17;;
7398;SDS011;3740;50.700;7.184;2022-07-05T14:10:06;5.55;;;2.22;;
7398;SDS011;3740;50.700;7.184;2022-07-05T14:12:52;3.53;;;1.70;;
7398;SDS011;3740;50.700;7.184;2022-07-05T14:15:38;2.35;;;1.42;;
7398;SDS011;3740;50.700;7.184;2022-07-05T14:18:24;1.80;;;1.70;;
7398;SDS011;3740;50.700;7.184;2022-07-05T14:21:10;2.95;;;1.80;;
7398;SDS011;3740;50.700;7.184;2022-07-05T14:24:00;2.00;;;1.90;;
7398;SDS011;3740;50.700;7.184;2022-07-05T14:26:46;1.55;;;1.45;;
7398;SDS011;3740;50.700;7.184;2022-07-05T14:29:32;5.55;;;1.92;;
7398;SDS011;3740;50.700;7.184;2022-07-05T14:32:18;4.63;;;1.90;;
7398;SDS011;3740;50.700;7.184;2022-07-05T14:35:04;2.03;;;1.80;;
7398;SDS011;3740;50.700;7.184;2022-07-05T14:37:51;3.47;;;1.90;;
7398;SDS011;3740;50.700;7.184;2022-07-05T14:40:36;3.88;;;2.25;;
7398;SDS011;3740;50.700;7.184;2022-07-05T14:43:22;1.77;;;1.60;;
7398;SDS011;3740;50.700;7.184;2022-07-05T14:46:08;3.03;;;2.13;;
7398;SDS011;3740;50.700;7.184;2022-07-05T14:48:57;3.15;;;1.83;;
7398;SDS011;3740;50.700;7.184;2022-07-05T14:51:43;1.80;;;1.70;;
7398;SDS011;3740;50.700;7.184;2022-07-05T14:54:29;2.88;;;1.80;;
7398;SDS011;3740;50.700;7.184;2022-07-05T14:57:15;1.70;;;1.50;;
7398;SDS011;3740;50.700;7.184;2022-07-05T15:00:01;2.00;;;1.90;;
7398;SDS011;3740;50.700;7.184;2022-07-05T15:02:48;2.00;;;1.90;;
7398;SDS011;3740;50.700;7.184;2022-07-05T15:05:33;3.42;;;1.83;;
7398;SDS011;3740;50.700;7.184;2022-07-05T15:08:19;2.00;;;1.80;;
7398;SDS011;3740;50.700;7.184;2022-07-05T15:11:06;3.72;;;1.80;;
7398;SDS011;3740;50.700;7.184;2022-07-05T15:13:52;2.15;;;1.63;;
7398;SDS011;3740;50.700;7.184;2022-07-05T15:16:37;3.95;;;2.10;;
7398;SDS011;3740;50.700;7.184;2022-07-05T15:19:23;3.28;;;1.80;;
7398;SDS011;3740;50.700;7.184;2022-07-05T15:22:09;3.00;;;2.28;;
7398;SDS011;3740;50.700;7.184;2022-07-05T15:24:56;2.88;;;1.77;;
7398;SDS011;3740;50.700;7.184;2022-07-05T15:27:42;4.05;;;1.67;;
7398;SDS011;3740;50.700;7.184;2022-07-05T15:30:27;1.70;;;1.60;;
7398;SDS011;3740;50.700;7.184;2022-07-05T15:33:13;3.30;;;2.10;;
7398;SDS011;3740;50.700;7.184;2022-07-05T15:35:59;2.72;;;2.03;;
7398;SDS011;3740;50.700;7.184;2022-07-05T15:38:45;2.10;;;1.60;;
7398;SDS011;3740;50.700;7.184;2022-07-05T15:41:31;1.58;;;1.45;;
7398;SDS011;3740;50.700;7.184;2022-07-05T15:44:17;3.00;;;1.92;;
7398;SDS011;3740;50.700;7.184;2022-07-05T15:47:03;2.80;;;2.10;;
7398;SDS011;3740;50.700;7.184;2022-07-05T15:49:52;2.08;;;1.60;;
7398;SDS011;3740;50.700;7.184;2022-07-05T15:52:38;2.60;;;1.60;;
7398;SDS011;3740;50.700;7.184;2022-07-05T15:55:25;4.97;;;2.13;;
7398;SDS011;3740;50.700;7.184;2022-07-05T15:58:11;5.35;;;2.47;;
7398;SDS011;3740;50.700;7.184;2022-07-05T16:00:57;4.03;;;1.95;;
7398;SDS011;3740;50.700;7.184;2022-07-05T16:03:47;2.60;;;1.98;;
7398;SDS011;3740;50.700;7.184;2022-07-05T16:06:32;1.80;;;1.70;;
7398;SDS011;3740;50.700;7.184;2022-07-05T16:09:18;3.97;;;2.58;;
7398;SDS011;3740;50.700;7.184;2022-07-05T16:12:04;3.33;;;2.10;;
7398;SDS011;3740;50.700;7.184;2022-07-05T16:14:51;3.55;;;1.95;;
7398;SDS011;3740;50.700;7.184;2022-07-05T16:17:36;2.15;;;1.90;;
7398;SDS011;3740;50.700;7.184;2022-07-05T16:20:22;3.67;;;2.10;;
7398;SDS011;3740;50.700;7.184;2022-07-05T16:23:08;2.13;;;1.92;;
7398;SDS011;3740;50.700;7.184;2022-07-05T16:25:54;2.75;;;1.75;;
7398;SDS011;3740;50.700;7.184;2022-07-05T16:28:42;1.88;;;1.55;;
7398;SDS011;3740;50.700;7.184;2022-07-05T16:31:28;1.90;;;1.80;;
7398;SDS011;3740;50.700;7.184;2022-07-05T16:34:15;2.38;;;1.58;;
7398;SDS011;3740;50.700;7.184;2022-07-05T16:37:00;2.90;;;2.10;;
7398;SDS011;3740;50.700;7.184;2022-07-05T16:39:50;1.85;;;1.70;;
7398;SDS011;3740;50.700;7.184;2022-07-05T16:42:37;3.17;;;1.85;;
7398;SDS011;3740;50.700;7.184;2022-07-05T16:45:23;2.40;;;1.95;;
7398;SDS011;3740;50.700;7.184;2022-07-05T16:48:09;2.33;;;2.10;;
7398;SDS011;3740;50.700;7.184;2022-07-05T16:50:54;4.07;;;2.20;;
7398;SDS011;3740;50.700;7.184;2022-07-05T16:53:40;2.22;;;1.73;;
7398;SDS011;3740;50.700;7.184;2022-07-05T16:56:27;3.33;;;1.90;;
7398;SDS011;3740;50.700;7.184;2022-07-05T16:59:13;2.38;;;1.63;;
7398;SDS011;3740;50.700;7.184;2022-07-05T17:01:59;3.13;;;1.90;;
7398;SDS011;3740;50.700;7.184;2022-07-05T17:04:47;2.65;;;2.08;;
7398;SDS011;3740;50.700;7.184;2022-07-05T17:07:32;3.38;;;2.20;;
7398;SDS011;3740;50.700;7.184;2022-07-05T17:10:18;2.22;;;2.03;;
7398;SDS011;3740;50.700;7.184;2022-07-05T17:13:04;3.42;;;2.00;;
7398;SDS011;3740;50.700;7.184;2022-07-05T17:15:50;2.10;;;1.90;;
7398;SDS011;3740;50.700;7.184;2022-07-05T17:18:37;3.60;;;2.30;;
7398;SDS011;3740;50.700;7.184;2022-07-05T17:21:24;2.05;;;1.80;;
7398;SDS011;3740;50.700;7.184;2022-07-05T17:24:10;3.65;;;2.33;;
7398;SDS011;3740;50.700;7.184;2022-07-05T17:26:57;3.10;;;2.35;;